Time;durP1;ratioP1;P1;durP2;ratioP2;P2;SDS_P1;SDS_P2;PMS_P1;PMS_P2;Temp;Humidity;BMP_temperature;BMP_pressure;BME280_temperature;BME280_humidity;BME280_pressure;Samples;Min_cycle;Max_cycle;Signal;HPM_P1;HPM_P2
2022/05/26 00:01:00;;;;;;;1.20;0.80;;;17.10;99.90;;;;;;5010879;28;20684;-73
2022/05/26 00:03:26;;;;;;;0.80;0.70;;;17.00;99.90;;;;;;5021854;28;20442;-73
2022/05/26 00:05:51;;;;;;;1.10;0.90;;;17.10;99.90;;;;;;5013486;28;20495;-73
2022/05/26 00:08:17;;;;;;;3.10;1.10;;;17.10;99.90;;;;;;5013319;28;20193;-73
2022/05/26 00:10:43;;;;;;;1.40;1.00;;;17.20;99.90;;;;;;5015518;28;20255;-73
2022/05/26 00:13:08;;;;;;;1.50;0.90;;;17.20;99.90;;;;;;5020663;28;20596;-74
2022/05/26 00:15:34;;;;;;;1.70;1.20;;;17.20;99.90;;;;;;5018781;28;20202;-75
2022/05/26 00:18:00;;;;;;;1.00;0.70;;;17.30;99.90;;;;;;5021593;28;20189;-73
2022/05/26 00:20:25;;;;;;;1.40;1.03;;;17.30;99.90;;;;;;5022704;28;21013;-74
2022/05/26 00:22:51;;;;;;;2.40;1.40;;;17.30;99.90;;;;;;5024703;28;20194;-74
2022/05/26 00:25:16;;;;;;;2.83;0.97;;;17.40;99.90;;;;;;5025966;28;20617;-73
2022/05/26 00:27:42;;;;;;;1.90;1.00;;;17.50;99.90;;;;;;5020867;28;20191;-73
2022/05/26 00:30:09;;;;;;;1.47;0.97;;;17.50;99.90;;;;;;5024997;28;20207;-72
2022/05/26 00:32:34;;;;;;;2.00;1.00;;;17.60;99.70;;;;;;5022024;28;20185;-73
2022/05/26 00:35:00;;;;;;;1.33;1.13;;;17.60;99.80;;;;;;5020271;28;20465;-73
2022/05/26 00:37:26;;;;;;;1.63;1.20;;;17.60;99.80;;;;;;5016898;28;20267;-75
2022/05/26 00:39:51;;;;;;;2.13;0.90;;;17.60;99.80;;;;;;5016802;28;20694;-74
2022/05/26 00:42:17;;;;;;;2.80;1.30;;;17.60;99.40;;;;;;5025378;28;20182;-73
2022/05/26 00:44:42;;;;;;;1.00;0.90;;;17.50;99.60;;;;;;5016058;28;20208;-73
2022/05/26 00:47:19;;;;;;;1.97;0.90;;;17.40;99.90;;;;;;5013802;28;20182;-74
2022/05/26 00:49:44;;;;;;;1.90;1.00;;;17.50;99.90;;;;;;5007198;28;20164;-73
2022/05/26 00:52:20;;;;;;;1.73;1.10;;;17.50;99.50;;;;;;5012215;28;20492;-74
2022/05/26 00:54:47;;;;;;;1.20;1.10;;;17.50;99.90;;;;;;5016766;28;20636;-74
2022/05/26 00:57:30;;;;;;;2.53;1.10;;;17.50;99.90;;;;;;5011945;28;20776;-72
2022/05/26 01:00:01;;;;;;;1.37;1.07;;;17.50;99.90;;;;;;5012879;28;20459;-74
2022/05/26 01:02:34;;;;;;;1.90;0.90;;;17.40;99.90;;;;;;5017135;28;20402;-73
2022/05/26 01:05:03;;;;;;;2.80;0.90;;;17.40;99.90;;;;;;5017587;28;20993;-73
2022/05/26 01:07:36;;;;;;;1.33;1.00;;;17.30;99.90;;;;;;5014166;28;20403;-74
2022/05/26 01:10:01;;;;;;;1.40;0.93;;;17.30;99.90;;;;;;5020820;28;20421;-73
2022/05/26 01:12:27;;;;;;;3.30;1.27;;;17.30;99.90;;;;;;5025388;28;20414;-72
2022/05/26 01:14:57;;;;;;;1.43;0.87;;;17.10;99.90;;;;;;5025205;28;20479;-72
2022/05/26 01:17:39;;;;;;;2.30;1.10;;;17.10;99.90;;;;;;5004395;28;20198;-72
2022/05/26 01:20:20;;;;;;;1.43;1.20;;;17.00;99.90;;;;;;5007685;28;20423;-71
2022/05/26 01:23:01;;;;;;;2.10;1.10;;;17.00;99.90;;;;;;5025137;28;20404;-73
2022/05/26 01:25:59;;;;;;;1.73;1.10;;;16.90;99.90;;;;;;5014760;28;20445;-73
2022/05/26 01:29:00;;;;;;;1.60;1.30;;;16.90;99.90;;;;;;5011919;28;21063;-71
2022/05/26 01:31:44;;;;;;;2.13;1.30;;;16.80;99.90;;;;;;5006536;28;20415;-73
2022/05/26 01:34:18;;;;;;;3.80;1.60;;;16.80;99.90;;;;;;5005003;28;20450;-73
2022/05/26 01:36:58;;;;;;;1.90;0.87;;;16.60;99.90;;;;;;5023348;28;20448;-73
2022/05/26 01:39:48;;;;;;;2.40;1.10;;;16.60;99.90;;;;;;5024199;28;20415;-73
2022/05/26 01:42:38;;;;;;;1.57;0.90;;;16.50;99.90;;;;;;5025054;28;20418;-72
2022/05/26 01:45:46;;;;;;;3.80;1.20;;;16.40;99.90;;;;;;5013284;28;20518;-74
2022/05/26 01:48:18;;;;;;;1.13;0.90;;;16.30;99.90;;;;;;5003848;28;20430;-72
2022/05/26 01:50:51;;;;;;;2.17;1.10;;;16.10;99.90;;;;;;5005090;28;20412;-72
2022/05/26 01:53:35;;;;;;;1.23;0.77;;;16.20;99.90;;;;;;5020100;28;20413;-72
2022/05/26 01:56:10;;;;;;;1.53;0.83;;;16.20;99.90;;;;;;5013458;28;20481;-73
2022/05/26 01:59:10;;;;;;;1.00;0.90;;;16.30;99.90;;;;;;5011668;28;20463;-74
2022/05/26 02:01:42;;;;;;;1.90;0.90;;;16.30;99.90;;;;;;4981438;28;20469;-73
2022/05/26 02:04:16;;;;;;;1.57;0.80;;;16.30;99.90;;;;;;5008048;28;20810;-73
2022/05/26 02:06:48;;;;;;;2.23;0.93;;;16.30;99.90;;;;;;5004718;28;20426;-73
2022/05/26 02:09:18;;;;;;;1.13;0.90;;;16.30;99.90;;;;;;5011790;28;20414;-74
2022/05/26 02:11:54;;;;;;;1.80;0.80;;;16.30;99.90;;;;;;5019534;28;20399;-73
2022/05/26 02:14:29;;;;;;;1.87;0.73;;;16.30;99.90;;;;;;5023221;28;20443;-73
2022/05/26 02:17:22;;;;;;;1.57;0.80;;;16.30;99.90;;;;;;5009015;28;20455;-73
2022/05/26 02:19:55;;;;;;;1.50;0.73;;;16.40;99.90;;;;;;5004505;28;20412;-74
2022/05/26 02:22:49;;;;;;;1.57;0.70;;;16.30;99.90;;;;;;5008527;28;20471;-73
2022/05/26 02:25:24;;;;;;;1.37;1.07;;;16.20;99.90;;;;;;5024138;28;20445;-73
2022/05/26 02:27:53;;;;;;;1.23;0.70;;;16.30;99.90;;;;;;5015922;28;20794;-73
2022/05/26 02:30:21;;;;;;;2.27;0.87;;;16.20;99.90;;;;;;5004565;28;20436;-73
2022/05/26 02:32:50;;;;;;;4.30;1.10;;;16.30;99.90;;;;;;5006315;28;20790;-72
2022/05/26 02:35:29;;;;;;;1.23;0.83;;;16.30;99.90;;;;;;5012824;28;20460;-75
2022/05/26 02:38:01;;;;;;;3.37;1.10;;;16.10;99.90;;;;;;5006289;28;20415;-73
2022/05/26 02:40:27;;;;;;;1.13;0.80;;;16.20;99.90;;;;;;5004096;28;20399;-72
2022/05/26 02:42:58;;;;;;;1.83;0.60;;;16.10;99.90;;;;;;5009924;28;20890;-72
2022/05/26 02:45:43;;;;;;;0.90;0.80;;;16.10;99.90;;;;;;5008196;28;20439;-73
2022/05/26 02:48:38;;;;;;;1.43;0.90;;;15.90;99.90;;;;;;5004013;28;20786;-72
2022/05/26 02:51:33;;;;;;;1.80;0.77;;;15.90;99.90;;;;;;5009961;28;20840;-72
2022/05/26 02:54:04;;;;;;;1.33;0.90;;;15.90;99.90;;;;;;5004098;28;20437;-71
2022/05/26 02:56:56;;;;;;;1.07;0.70;;;15.90;99.90;;;;;;5004013;28;20447;-74
2022/05/26 02:59:32;;;;;;;1.10;0.80;;;15.80;99.90;;;;;;5011051;28;20458;-72
2022/05/26 03:02:04;;;;;;;2.93;0.90;;;15.70;99.90;;;;;;5010819;28;20484;-71
2022/05/26 03:04:46;;;;;;;1.40;0.90;;;15.70;99.90;;;;;;5003447;28;20450;-73
2022/05/26 03:07:16;;;;;;;2.10;1.00;;;15.60;99.90;;;;;;5003910;28;20411;-71
2022/05/26 03:09:42;;;;;;;1.33;0.80;;;15.70;99.90;;;;;;5019786;28;20412;-72
2022/05/26 03:12:28;;;;;;;1.13;0.80;;;15.70;99.90;;;;;;5023462;28;20419;-73
2022/05/26 03:14:54;;;;;;;1.83;0.90;;;15.70;99.90;;;;;;5018683;28;20549;-72
2022/05/26 03:17:20;;;;;;;1.17;0.90;;;15.60;99.90;;;;;;5003932;28;20461;-72
2022/05/26 03:19:46;;;;;;;2.40;1.40;;;15.60;99.90;;;;;;5014776;28;20252;-72
2022/05/26 03:22:11;;;;;;;1.97;1.10;;;15.60;99.90;;;;;;5023422;28;20173;-72
2022/05/26 03:24:37;;;;;;;1.37;1.10;;;15.50;99.90;;;;;;5016273;28;20268;-71
2022/05/26 03:27:03;;;;;;;1.83;1.00;;;15.50;99.90;;;;;;5013455;28;20183;-71
2022/05/26 03:29:29;;;;;;;3.00;1.10;;;15.50;99.90;;;;;;5009142;28;20561;-72
2022/05/26 03:31:54;;;;;;;1.23;0.90;;;15.50;99.90;;;;;;5016015;28;20430;-71
2022/05/26 03:42:33;;;;;;;1.20;1.00;;;15.70;99.90;;;;;;5023512;28;20447;-71
2022/05/26 03:44:58;;;;;;;1.20;0.90;;;15.70;99.90;;;;;;5023309;28;20439;-73
2022/05/26 03:47:24;;;;;;;1.13;0.70;;;15.60;99.90;;;;;;5012412;28;20213;-71
2022/05/26 03:49:50;;;;;;;1.00;0.70;;;15.60;99.90;;;;;;5021188;28;20218;-71
2022/05/26 03:52:16;;;;;;;2.27;0.93;;;15.70;99.90;;;;;;5003604;28;21139;-72
2022/05/26 03:54:41;;;;;;;1.30;1.10;;;15.70;99.90;;;;;;5006772;28;20634;-72
2022/05/26 03:57:07;;;;;;;2.13;0.93;;;15.70;99.90;;;;;;5007368;28;20504;-72
2022/05/26 03:59:34;;;;;;;2.23;1.00;;;15.70;99.90;;;;;;5039972;22;20233;-71
2022/05/26 04:02:00;;;;;;;1.10;0.80;;;15.70;99.90;;;;;;5024476;28;20189;-70
2022/05/26 04:04:26;;;;;;;1.27;0.77;;;15.70;99.90;;;;;;5016266;28;20418;-71
2022/05/26 04:06:51;;;;;;;0.93;0.80;;;15.70;99.90;;;;;;5016321;28;20194;-71
2022/05/26 04:09:17;;;;;;;1.43;0.90;;;15.60;99.90;;;;;;5018687;28;20199;-72
2022/05/26 04:11:43;;;;;;;0.90;0.70;;;15.60;99.90;;;;;;5006970;28;20182;-71
2022/05/26 04:14:08;;;;;;;1.60;1.00;;;15.60;99.90;;;;;;5007016;28;20184;-71
2022/05/26 04:16:34;;;;;;;1.60;0.80;;;15.70;99.90;;;;;;5006181;28;20206;-71
2022/05/26 04:19:00;;;;;;;1.00;0.90;;;15.60;99.90;;;;;;5007655;28;20622;-72
2022/05/26 04:21:25;;;;;;;2.60;0.93;;;15.70;99.90;;;;;;5007885;28;20857;-71
2022/05/26 04:23:51;;;;;;;4.27;1.60;;;15.80;99.90;;;;;;5008032;28;20668;-71
2022/05/26 04:26:16;;;;;;;1.07;0.83;;;15.90;99.90;;;;;;5007349;28;20217;-71
2022/05/26 04:28:42;;;;;;;2.63;1.40;;;15.90;99.90;;;;;;5005318;28;20192;-72
2022/05/26 04:31:08;;;;;;;1.17;0.83;;;15.90;99.90;;;;;;5008950;28;20184;-71
2022/05/26 04:33:33;;;;;;;1.23;0.97;;;15.90;99.90;;;;;;5009238;28;20190;-71
2022/05/26 04:36:03;;;;;;;1.37;0.73;;;16.10;99.90;;;;;;5008061;28;20208;-71
2022/05/26 04:38:29;;;;;;;1.57;0.90;;;16.20;99.90;;;;;;5005523;28;20177;-71
2022/05/26 04:41:03;;;;;;;1.47;0.90;;;16.30;99.90;;;;;;5007005;28;20424;-71
2022/05/26 04:43:31;;;;;;;1.20;1.00;;;16.20;99.90;;;;;;5007292;28;20200;-71
2022/05/26 04:45:57;;;;;;;2.17;1.13;;;16.30;99.90;;;;;;5005918;28;20411;-71
2022/05/26 04:48:23;;;;;;;2.57;1.37;;;16.40;99.90;;;;;;5006326;28;20420;-71
2022/05/26 04:50:52;;;;;;;1.10;1.00;;;16.40;99.90;;;;;;5006359;28;20920;-71
2022/05/26 04:53:19;;;;;;;1.50;0.90;;;16.50;99.90;;;;;;5006361;28;20528;-71
2022/05/26 04:55:46;;;;;;;1.83;1.00;;;16.50;99.90;;;;;;5006064;28;20557;-71
2022/05/26 04:58:12;;;;;;;2.50;1.07;;;16.50;99.90;;;;;;5006543;28;20422;-71
2022/05/26 05:00:38;;;;;;;1.40;0.80;;;16.30;99.90;;;;;;5004180;28;20444;-71
2022/05/26 05:03:03;;;;;;;2.23;0.90;;;16.40;99.90;;;;;;5006793;28;20787;-71
2022/05/26 05:05:29;;;;;;;3.57;1.27;;;16.40;99.90;;;;;;5004629;28;20453;-71
2022/05/26 05:07:54;;;;;;;2.00;0.90;;;16.30;99.90;;;;;;5006115;28;20207;-71
2022/05/26 05:10:20;;;;;;;1.73;1.13;;;16.40;99.90;;;;;;5005024;28;20623;-71
2022/05/26 05:12:49;;;;;;;1.50;0.83;;;16.50;99.90;;;;;;5006196;28;20189;-70
2022/05/26 05:15:22;;;;;;;1.00;0.90;;;16.40;99.90;;;;;;5006061;28;20696;-71
2022/05/26 05:17:48;;;;;;;1.57;0.80;;;16.50;99.90;;;;;;5006146;28;20418;-71
2022/05/26 05:20:14;;;;;;;1.63;0.90;;;16.60;99.90;;;;;;5005798;28;20962;-71
2022/05/26 05:22:53;;;;;;;1.50;0.77;;;16.60;99.90;;;;;;5006035;28;20812;-72
2022/05/26 05:25:23;;;;;;;1.33;1.00;;;16.70;99.90;;;;;;5005961;28;20414;-70
2022/05/26 05:28:02;;;;;;;0.90;0.60;;;17.00;99.90;;;;;;5005342;28;20399;-71
2022/05/26 05:30:59;;;;;;;1.57;0.80;;;17.10;99.90;;;;;;5005462;28;20855;-71
2022/05/26 05:33:29;;;;;;;1.83;1.00;;;17.30;99.90;;;;;;5000069;28;20436;-70
2022/05/26 05:36:02;;;;;;;1.80;0.80;;;17.30;99.90;;;;;;5005483;28;20588;-71
2022/05/26 05:38:28;;;;;;;2.70;1.00;;;17.20;99.90;;;;;;5005120;28;20421;-71
2022/05/26 05:40:54;;;;;;;1.53;1.00;;;17.20;99.90;;;;;;5005631;28;21051;-71
2022/05/26 05:43:20;;;;;;;1.10;0.83;;;17.40;99.90;;;;;;5005520;28;20415;-71
2022/05/26 05:45:46;;;;;;;1.77;0.80;;;17.30;99.90;;;;;;5005108;28;20261;-72
2022/05/26 05:48:12;;;;;;;1.57;0.70;;;17.20;99.90;;;;;;5005397;28;20168;-71
2022/05/26 05:50:38;;;;;;;2.13;0.80;;;17.10;99.90;;;;;;5003267;28;20446;-72
2022/05/26 05:53:04;;;;;;;1.30;1.07;;;17.10;99.90;;;;;;5005373;28;20183;-71
2022/05/26 05:55:31;;;;;;;1.50;1.10;;;17.20;99.90;;;;;;5005110;28;20298;-72
2022/05/26 05:57:56;;;;;;;2.50;1.07;;;17.20;99.90;;;;;;5004249;28;20481;-71
2022/05/26 06:00:22;;;;;;;1.90;1.10;;;17.50;99.90;;;;;;5004169;28;20454;-71
2022/05/26 06:02:48;;;;;;;1.67;0.90;;;17.70;99.90;;;;;;5004778;28;20210;-70
2022/05/26 06:05:14;;;;;;;3.50;1.00;;;17.70;99.90;;;;;;5003766;28;20271;-71
2022/05/26 06:07:41;;;;;;;1.67;0.80;;;17.90;99.90;;;;;;5005078;28;20183;-71
2022/05/26 06:10:09;;;;;;;1.27;0.80;;;18.20;99.90;;;;;;5005074;28;20227;-72
2022/05/26 06:12:35;;;;;;;1.30;0.80;;;18.20;99.90;;;;;;5003823;28;20418;-72
2022/05/26 06:15:01;;;;;;;2.30;0.80;;;18.30;99.90;;;;;;5003260;28;20415;-71
2022/05/26 06:17:26;;;;;;;2.30;0.90;;;18.40;99.90;;;;;;5005057;28;20846;-71
2022/05/26 06:19:52;;;;;;;2.63;1.00;;;18.30;99.90;;;;;;5004624;28;20266;-71
2022/05/26 06:22:20;;;;;;;2.00;0.80;;;18.40;99.90;;;;;;5003360;28;20233;-71
2022/05/26 06:24:46;;;;;;;1.70;0.93;;;18.20;99.90;;;;;;5005072;28;20414;-72
2022/05/26 06:30:00;;;;;;;3.20;1.00;;;18.10;99.90;;;;;;5004030;28;20488;-71
2022/05/26 06:37:57;;;;;;;1.73;1.20;;;18.30;99.90;;;;;;5004579;28;20406;-70
2022/05/26 06:40:23;;;;;;;2.40;1.13;;;18.20;99.90;;;;;;5004572;28;20928;-71
2022/05/26 06:42:48;;;;;;;2.50;0.90;;;18.40;99.90;;;;;;5004344;28;20181;-72
2022/05/26 06:45:18;;;;;;;1.30;0.90;;;18.30;99.90;;;;;;5003119;28;20195;-72
2022/05/26 06:47:44;;;;;;;2.30;0.80;;;18.40;99.90;;;;;;5004307;28;20258;-72
2022/05/26 06:50:10;;;;;;;2.47;1.10;;;18.60;99.90;;;;;;5003019;28;20867;-72
2022/05/26 06:52:37;;;;;;;0.90;0.70;;;19.00;99.90;;;;;;5004769;28;20418;-72
2022/05/26 06:55:05;;;;;;;1.10;0.63;;;19.10;99.90;;;;;;5004581;28;21634;-71
2022/05/26 06:57:30;;;;;;;1.30;0.87;;;19.20;99.90;;;;;;5004539;28;20415;-72
2022/05/26 06:59:56;;;;;;;1.80;0.90;;;19.00;99.90;;;;;;5003769;28;20465;-72
2022/05/26 07:02:22;;;;;;;3.73;0.87;;;19.00;99.90;;;;;;5004357;28;21109;-70
2022/05/26 07:04:47;;;;;;;2.67;1.00;;;19.10;99.90;;;;;;5004173;28;20182;-72
2022/05/26 07:07:15;;;;;;;1.90;1.20;;;19.00;99.90;;;;;;5004119;28;20442;-71
2022/05/26 07:09:41;;;;;;;1.17;0.80;;;18.70;99.90;;;;;;5004193;28;20207;-71
2022/05/26 07:12:07;;;;;;;2.77;1.10;;;18.70;99.90;;;;;;5004530;28;20802;-73
2022/05/26 07:14:33;;;;;;;2.30;1.07;;;18.80;99.90;;;;;;5004118;28;20426;-71
2022/05/26 07:16:59;;;;;;;3.47;0.97;;;18.90;99.90;;;;;;5004659;28;20947;-72
2022/05/26 07:19:26;;;;;;;3.40;1.17;;;19.00;99.90;;;;;;5004194;28;20434;-72
2022/05/26 07:21:51;;;;;;;4.33;1.00;;;19.20;99.90;;;;;;5003773;28;20407;-71
2022/05/26 07:24:19;;;;;;;1.73;1.00;;;19.10;99.50;;;;;;5001860;28;20438;-71
2022/05/26 07:26:46;;;;;;;2.53;0.90;;;19.10;99.50;;;;;;5003757;28;20223;-72
2022/05/26 07:29:11;;;;;;;1.60;1.00;;;19.20;99.60;;;;;;5006711;28;20446;-71
2022/05/26 07:31:37;;;;;;;0.93;0.80;;;19.30;99.90;;;;;;5008242;28;20410;-72
2022/05/26 07:34:04;;;;;;;1.37;0.70;;;19.40;99.30;;;;;;5007891;28;20556;-72
2022/05/26 07:42:03;;;;;;;1.97;0.90;;;20.00;98.70;;;;;;5008323;28;20385;-69
2022/05/26 07:44:32;;;;;;;1.67;0.87;;;20.00;98.10;;;;;;5007739;28;20403;-71
2022/05/26 07:46:57;;;;;;;1.90;0.97;;;20.00;97.60;;;;;;5007549;28;20517;-71
2022/05/26 07:49:23;;;;;;;0.90;0.70;;;19.80;97.80;;;;;;5006904;28;20438;-72
2022/05/26 07:51:49;;;;;;;1.53;1.10;;;19.80;97.70;;;;;;5007612;28;21281;-71
2022/05/26 07:54:15;;;;;;;2.07;1.07;;;20.00;98.10;;;;;;5007212;28;20418;-72
2022/05/26 07:56:41;;;;;;;1.43;1.00;;;20.10;97.60;;;;;;5007284;28;20253;-71
2022/05/26 07:59:08;;;;;;;1.67;1.00;;;20.30;98.00;;;;;;5006977;28;20223;-73
2022/05/26 08:01:34;;;;;;;1.43;0.87;;;20.60;97.40;;;;;;5008029;28;20255;-71
2022/05/26 08:03:59;;;;;;;1.53;0.87;;;20.70;96.50;;;;;;5007641;28;20418;-71
2022/05/26 08:06:25;;;;;;;2.40;0.80;;;20.60;96.50;;;;;;5007309;28;20423;-71
2022/05/26 08:08:51;;;;;;;1.93;0.93;;;20.50;96.70;;;;;;5007390;28;20192;-71
2022/05/26 08:11:17;;;;;;;2.20;0.80;;;20.60;97.70;;;;;;5006987;28;20210;-71
2022/05/26 08:13:42;;;;;;;1.20;1.00;;;20.60;96.80;;;;;;5007434;28;20415;-71
2022/05/26 08:16:08;;;;;;;1.87;1.40;;;20.70;96.50;;;;;;5006658;28;20626;-71
2022/05/26 08:18:35;;;;;;;2.13;1.33;;;20.70;96.90;;;;;;5006712;28;20180;-70
2022/05/26 08:21:09;;;;;;;1.37;0.90;;;20.70;96.70;;;;;;5007376;28;20199;-71
2022/05/26 08:23:35;;;;;;;1.30;0.90;;;20.60;97.00;;;;;;5007105;28;20497;-70
2022/05/26 08:26:00;;;;;;;2.30;1.10;;;20.40;97.00;;;;;;5006811;28;20415;-72
2022/05/26 08:28:26;;;;;;;1.77;1.10;;;20.20;96.90;;;;;;5005210;28;20409;-72
2022/05/26 08:30:51;;;;;;;1.40;0.90;;;20.10;96.80;;;;;;5006550;28;20180;-71
2022/05/26 08:33:17;;;;;;;2.33;0.90;;;20.00;97.10;;;;;;5006458;28;20198;-71
2022/05/26 08:35:43;;;;;;;3.07;1.10;;;20.10;97.30;;;;;;5006725;28;20196;-71
2022/05/26 08:38:08;;;;;;;1.20;1.07;;;20.30;97.40;;;;;;5006647;28;20542;-71
2022/05/26 08:40:39;;;;;;;1.00;0.90;;;20.20;96.70;;;;;;5006083;28;20420;-71
2022/05/26 08:43:10;;;;;;;4.60;1.10;;;20.20;96.90;;;;;;5006467;28;20176;-71
2022/05/26 08:45:43;;;;;;;2.00;1.03;;;20.10;97.00;;;;;;5006266;28;20506;-71
2022/05/26 08:48:32;;;;;;;2.77;1.30;;;20.40;96.90;;;;;;5006153;28;20422;-71
2022/05/26 08:50:58;;;;;;;1.63;1.53;;;20.70;98.00;;;;;;5006604;28;20907;-71
2022/05/26 08:53:32;;;;;;;4.20;1.20;;;21.00;96.90;;;;;;5006320;28;20473;-71
2022/05/26 08:56:00;;;;;;;3.20;0.80;;;20.90;96.80;;;;;;5006115;28;20282;-71
2022/05/26 08:58:32;;;;;;;1.67;1.00;;;20.70;96.10;;;;;;5005948;28;20498;-71
2022/05/26 09:01:03;;;;;;;1.63;0.90;;;20.70;96.60;;;;;;5005890;28;20402;-71
2022/05/26 09:03:36;;;;;;;2.70;1.17;;;21.20;97.40;;;;;;5005635;28;20407;-71
2022/05/26 09:06:08;;;;;;;3.47;1.07;;;21.40;95.40;;;;;;5006268;28;20403;-71
2022/05/26 09:14:34;;;;;;;2.20;1.10;;;20.90;96.60;;;;;;5006120;28;20401;-72
2022/05/26 09:17:08;;;;;;;1.30;0.90;;;20.90;96.40;;;;;;5005755;28;20553;-71
2022/05/26 09:19:43;;;;;;;3.73;1.13;;;20.90;95.90;;;;;;5005380;28;20838;-71
2022/05/26 09:22:32;;;;;;;2.40;0.90;;;21.00;95.70;;;;;;5005731;28;21580;-72
2022/05/26 09:24:59;;;;;;;2.90;0.80;;;21.50;95.30;;;;;;5005854;28;20438;-70
2022/05/26 09:27:36;;;;;;;1.63;1.07;;;21.80;96.20;;;;;;5005655;28;20410;-71
2022/05/26 09:30:25;;;;;;;1.23;0.90;;;21.80;95.20;;;;;;5005047;28;20493;-71
2022/05/26 09:32:52;;;;;;;1.47;0.90;;;21.30;94.90;;;;;;5005303;28;20411;-72
2022/05/26 09:35:20;;;;;;;1.20;0.80;;;21.40;96.00;;;;;;5005172;28;20454;-71
2022/05/26 09:37:49;;;;;;;1.10;0.80;;;21.50;95.50;;;;;;5005522;28;20411;-72
2022/05/26 09:40:24;;;;;;;1.80;0.80;;;21.50;95.10;;;;;;5004107;28;20524;-73
2022/05/26 09:42:55;;;;;;;2.70;1.07;;;21.40;94.80;;;;;;5005198;28;20415;-72
2022/05/26 09:45:21;;;;;;;2.93;0.90;;;21.60;95.20;;;;;;5005018;28;20406;-72
2022/05/26 09:47:53;;;;;;;1.40;0.70;;;21.00;95.60;;;;;;5005587;28;20415;-72
2022/05/26 09:50:37;;;;;;;0.97;0.73;;;20.70;95.50;;;;;;5004459;28;20206;-71
2022/05/26 09:53:05;;;;;;;2.17;0.90;;;20.50;96.00;;;;;;5005218;28;20414;-72
2022/05/26 09:55:41;;;;;;;1.53;0.77;;;20.50;96.90;;;;;;5005550;28;20459;-72
2022/05/26 09:58:28;;;;;;;1.40;1.03;;;20.60;97.00;;;;;;5005318;28;20419;-71
2022/05/26 10:00:57;;;;;;;1.03;0.90;;;20.10;96.50;;;;;;5004859;28;20427;-72
2022/05/26 10:04:04;;;;;;;3.43;1.10;;;20.30;97.50;;;;;;5004896;28;20456;-72
2022/05/26 10:06:33;;;;;;;2.80;1.23;;;20.30;96.40;;;;;;4971766;28;20425;-73
2022/05/26 10:09:20;;;;;;;1.10;0.83;;;20.30;97.00;;;;;;5004998;28;20423;-72
2022/05/26 10:12:06;;;;;;;1.23;0.80;;;20.60;96.20;;;;;;5004494;28;20486;-71
2022/05/26 10:14:50;;;;;;;2.87;0.83;;;20.30;96.50;;;;;;4963218;28;20513;-72
2022/05/26 10:17:37;;;;;;;1.97;1.13;;;20.10;96.70;;;;;;5003797;28;21047;-72
2022/05/26 10:20:25;;;;;;;1.33;0.80;;;20.00;96.90;;;;;;5003972;28;20435;-71
2022/05/26 10:23:29;;;;;;;1.10;0.77;;;20.10;97.00;;;;;;5004715;28;20402;-72
2022/05/26 10:26:16;;;;;;;2.07;1.00;;;20.50;96.40;;;;;;5004951;28;20414;-72
2022/05/26 10:29:09;;;;;;;1.30;1.00;;;20.90;96.20;;;;;;5004740;28;20873;-72
2022/05/26 10:31:51;;;;;;;2.60;1.37;;;20.90;96.60;;;;;;5004630;28;20794;-71
2022/05/26 10:34:35;;;;;;;1.50;0.70;;;21.10;95.80;;;;;;5004602;28;20414;-71
2022/05/26 10:37:23;;;;;;;2.90;1.00;;;21.40;95.50;;;;;;5004522;28;20835;-71
2022/05/26 10:39:54;;;;;;;1.30;0.70;;;21.40;95.70;;;;;;5004670;28;20439;-71
2022/05/26 10:42:26;;;;;;;2.17;0.87;;;21.80;96.00;;;;;;5004724;28;20411;-72
2022/05/26 10:45:10;;;;;;;2.30;1.00;;;21.60;95.40;;;;;;5004226;28;20410;-73
2022/05/26 10:47:39;;;;;;;1.47;1.10;;;21.70;95.30;;;;;;5004844;28;20403;-73
2022/05/26 10:50:27;;;;;;;1.40;1.30;;;21.40;95.10;;;;;;5004510;28;20431;-70
2022/05/26 10:53:15;;;;;;;1.07;0.90;;;21.40;95.40;;;;;;5004276;28;20418;-71
2022/05/26 10:55:59;;;;;;;1.67;1.10;;;21.10;95.50;;;;;;5004456;28;20829;-70
2022/05/26 10:58:40;;;;;;;1.33;1.10;;;20.80;95.70;;;;;;5004592;28;20425;-71
2022/05/26 11:01:22;;;;;;;3.57;0.90;;;21.00;95.90;;;;;;5003981;28;20419;-71
2022/05/26 11:03:51;;;;;;;1.40;0.73;;;20.70;96.20;;;;;;5006618;28;20409;-70
2022/05/26 11:06:27;;;;;;;1.40;0.80;;;20.60;96.00;;;;;;5008212;28;20415;-71
2022/05/26 11:09:07;;;;;;;2.50;0.83;;;20.50;96.30;;;;;;5008536;28;20810;-71
2022/05/26 11:11:35;;;;;;;4.00;0.90;;;20.30;96.60;;;;;;5008431;28;20402;-72
2022/05/26 11:17:23;;;;;;;1.03;0.70;;;20.60;96.40;;;;;;5008460;28;20448;-71
2022/05/26 11:20:03;;;;;;;1.40;0.90;;;20.90;95.90;;;;;;5008297;28;20484;-71
2022/05/26 11:22:30;;;;;;;1.10;0.97;;;21.00;95.90;;;;;;5023308;28;20945;-71
2022/05/26 11:24:58;;;;;;;1.40;0.90;;;21.20;96.40;;;;;;5008651;28;20407;-71
2022/05/26 11:27:39;;;;;;;2.40;1.00;;;21.30;96.50;;;;;;5006809;28;20852;-72
2022/05/26 11:36:09;;;;;;;2.13;1.03;;;21.10;96.20;;;;;;5007347;28;20499;-69
2022/05/26 11:38:44;;;;;;;3.20;1.73;;;21.00;95.60;;;;;;5008209;28;20403;-73
2022/05/26 11:41:35;;;;;;;2.00;1.80;;;20.90;95.90;;;;;;5051784;23;20520;-71
2022/05/26 11:44:10;;;;;;;4.30;1.30;;;21.10;95.70;;;;;;5007600;28;20447;-69
2022/05/26 11:46:41;;;;;;;1.50;1.00;;;21.20;95.70;;;;;;5013730;28;20464;-70
2022/05/26 11:49:28;;;;;;;1.40;1.20;;;21.30;95.60;;;;;;5007043;28;20501;-70
2022/05/26 11:51:53;;;;;;;2.20;1.20;;;21.40;95.40;;;;;;5006821;28;20504;-71
2022/05/26 11:55:01;;;;;;;1.27;1.10;;;21.80;95.20;;;;;;5007394;28;20398;-71
2022/05/26 11:57:41;;;;;;;1.20;1.00;;;22.00;95.60;;;;;;4930062;29;20235;-71
2022/05/26 12:00:16;;;;;;;2.80;1.10;;;22.20;95.90;;;;;;5003612;28;21012;-71
2022/05/26 12:02:44;;;;;;;1.43;1.20;;;22.30;94.70;;;;;;5006885;28;20755;-72
2022/05/26 12:05:28;;;;;;;1.93;1.00;;;21.90;94.20;;;;;;5006712;28;20477;-71
2022/05/26 12:08:00;;;;;;;2.43;1.03;;;21.50;94.70;;;;;;5007320;28;20431;-71
2022/05/26 12:10:28;;;;;;;1.50;1.40;;;21.50;94.70;;;;;;5007129;28;20406;-71
2022/05/26 12:13:20;;;;;;;1.47;1.03;;;21.60;95.00;;;;;;5006593;28;20449;-71
2022/05/26 12:16:15;;;;;;;3.40;1.17;;;21.40;95.10;;;;;;5006806;28;20857;-71
2022/05/26 12:18:59;;;;;;;1.70;1.13;;;21.00;95.30;;;;;;5006229;28;20549;-71
2022/05/26 12:21:27;;;;;;;3.00;1.40;;;21.00;95.90;;;;;;5006653;28;20431;-70
2022/05/26 12:23:53;;;;;;;1.57;1.20;;;20.90;96.20;;;;;;5006857;28;20407;-69
2022/05/26 12:26:30;;;;;;;2.90;1.70;;;20.70;96.40;;;;;;5006901;28;20410;-71
2022/05/26 12:29:34;;;;;;;1.67;1.00;;;20.70;96.50;;;;;;5006299;28;21187;-72
2022/05/26 12:32:09;;;;;;;2.40;0.87;;;20.90;96.70;;;;;;5006399;28;21511;-72
2022/05/26 12:35:01;;;;;;;1.50;1.10;;;20.60;96.70;;;;;;5006273;28;20899;-71
2022/05/26 12:37:48;;;;;;;1.93;1.17;;;20.40;97.00;;;;;;5006591;28;20504;-71
2022/05/26 12:40:43;;;;;;;1.97;1.10;;;20.40;97.10;;;;;;5006550;28;20411;-71
2022/05/26 12:43:27;;;;;;;4.90;1.37;;;20.40;97.70;;;;;;5006508;28;20411;-71
2022/05/26 12:45:59;;;;;;;3.00;1.10;;;20.70;97.40;;;;;;5007222;28;20557;-71
2022/05/26 12:49:09;;;;;;;3.47;1.50;;;20.90;97.20;;;;;;5006696;28;20406;-71
2022/05/26 12:51:37;;;;;;;2.00;1.30;;;21.40;96.90;;;;;;4972420;28;20439;-71
2022/05/26 12:54:05;;;;;;;2.60;1.27;;;;;;;;;;5006302;28;20449;-72
2022/05/26 12:56:53;;;;;;;4.47;1.37;;;23.20;95.30;;;;;;5005949;28;20864;-72
2022/05/26 12:59:24;;;;;;;1.97;1.20;;;23.90;94.30;;;;;;5005973;28;20761;-71
2022/05/26 13:01:50;;;;;;;1.93;0.90;;;23.90;93.00;;;;;;5006299;28;20885;-71
2022/05/26 13:04:24;;;;;;;1.80;1.30;;;23.90;93.50;;;;;;5005582;28;20509;-71
2022/05/26 13:06:52;;;;;;;1.50;0.93;;;24.00;93.00;;;;;;5005907;28;20238;-71
2022/05/26 13:09:28;;;;;;;2.93;1.10;;;24.30;92.90;;;;;;5005482;28;20426;-70
2022/05/26 13:12:00;;;;;;;2.20;1.17;;;24.80;92.20;;;;;;5004502;28;20824;-70
2022/05/26 13:14:36;;;;;;;2.07;1.50;;;24.50;91.70;;;;;;5005622;28;20419;-71
2022/05/26 13:17:24;;;;;;;2.20;1.40;;;23.40;93.00;;;;;;5005653;28;20438;-70
2022/05/26 13:19:51;;;;;;;1.30;1.10;;;22.90;94.20;;;;;;5005119;28;20577;-70
2022/05/26 13:22:31;;;;;;;2.70;1.40;;;22.60;94.10;;;;;;5005540;28;20469;-70
2022/05/26 13:25:09;;;;;;;2.07;1.20;;;22.10;94.60;;;;;;5005203;28;20403;-71
2022/05/26 13:27:48;;;;;;;4.80;1.27;;;21.50;95.70;;;;;;5005078;28;21122;-71
2022/05/26 13:33:07;;;;;;;2.70;1.70;;;20.80;97.40;;;;;;5005611;28;20453;-71
2022/05/26 13:35:40;;;;;;;2.00;1.30;;;20.80;98.10;;;;;;5004833;28;20867;-71
2022/05/26 13:38:23;;;;;;;1.73;1.23;;;20.60;98.30;;;;;;5005364;28;20426;-71
2022/05/26 13:40:49;;;;;;;2.80;1.33;;;20.60;98.60;;;;;;5004733;28;20399;-70
2022/05/26 13:43:17;;;;;;;2.50;1.90;;;20.80;98.60;;;;;;5004959;28;20433;-69
2022/05/26 13:45:43;;;;;;;2.50;1.40;;;20.90;98.20;;;;;;5005194;28;20432;-71
2022/05/26 13:48:27;;;;;;;2.10;1.60;;;21.00;98.50;;;;;;5004708;28;20411;-71
2022/05/26 13:50:56;;;;;;;2.40;1.33;;;20.90;98.70;;;;;;5004820;28;20438;-70
2022/05/26 13:53:22;;;;;;;1.50;1.30;;;20.70;98.50;;;;;;5005532;28;20903;-71
2022/05/26 13:55:49;;;;;;;4.83;1.23;;;20.60;98.40;;;;;;5005207;28;20577;-71